Time;durP1;ratioP1;P1;durP2;ratioP2;P2;SDS_P1;SDS_P2;PMS_P1;PMS_P2;Temp;Humidity;BMP_temperature;BMP_pressure;BME280_temperature;BME280_humidity;BME280_pressure;Samples;Min_cycle;Max_cycle;Signal;HPM_P1;HPM_P2
2023/09/16 00:00:46;;;;;;;16.27;13.80;;;;;15.80;94101.00;;;;7397772;19;20141;-71
2023/09/16 00:03:20;;;;;;;15.32;12.73;;;;;15.90;94117.00;;;;7398637;19;20137;-73
2023/09/16 00:05:48;;;;;;;18.77;14.45;;;;;15.90;94113.00;;;;7397846;19;20224;-71
2023/09/16 00:08:22;;;;;;;18.77;14.38;;;;;15.90;94110.00;;;;7397084;19;20136;-72
2023/09/16 00:10:50;;;;;;;16.38;13.90;;;;;16.00;94117.00;;;;7398963;19;20608;-71
2023/09/16 00:13:25;;;;;;;19.75;14.43;;;;;15.90;94110.00;;;;7395624;19;20199;-72
2023/09/16 00:15:59;;;;;;;16.33;13.60;;;;;16.00;94115.00;;;;7395550;19;20140;-73
2023/09/16 00:18:34;;;;;;;19.25;14.23;;;;;16.00;94109.00;;;;7398686;19;20135;-71
2023/09/16 00:21:11;;;;;;;19.27;13.80;;;;;15.90;94109.00;;;;7397781;19;20140;-70
2023/09/16 00:23:39;;;;;;;15.68;13.30;;;;;16.00;94114.00;;;;7396998;19;20137;-72
2023/09/16 00:26:18;;;;;;;20.48;13.60;;;;;16.00;94101.00;;;;7397786;19;20606;-73
2023/09/16 00:28:47;;;;;;;17.98;13.93;;;;;15.90;94104.00;;;;7396956;19;20133;-72
2023/09/16 00:31:28;;;;;;;16.38;13.95;;;;;15.90;94102.00;;;;7395167;19;20220;-73
2023/09/16 00:33:56;;;;;;;18.73;13.70;;;;;15.90;94103.00;;;;7396204;19;20144;-70
2023/09/16 00:36:36;;;;;;;20.23;14.63;;;;;15.80;94100.00;;;;7395922;19;20156;-72
2023/09/16 00:39:04;;;;;;;18.83;13.63;;;;;15.70;94095.00;;;;7395448;19;20724;-70
2023/09/16 00:41:39;;;;;;;17.15;14.45;;;;;15.80;94093.00;;;;7396234;19;20144;-71
2023/09/16 00:44:15;;;;;;;18.42;14.90;;;;;15.80;94103.00;;;;7393582;19;20534;-72
2023/09/16 00:46:50;;;;;;;19.75;14.90;;;;;15.90;94093.00;;;;7388962;19;20171;-70
2023/09/16 00:49:17;;;;;;;18.73;14.73;;;;;15.90;94107.00;;;;7396112;19;20133;-72
2023/09/16 00:51:52;;;;;;;17.88;15.00;;;;;16.00;94096.00;;;;7396879;19;20143;-70
2023/09/16 00:54:27;;;;;;;19.95;15.20;;;;;16.10;94100.00;;;;7394791;19;20502;-72
2023/09/16 00:57:03;;;;;;;18.05;14.32;;;;;16.10;94101.00;;;;7396625;19;20132;-74
2023/09/16 00:59:32;;;;;;;17.80;14.15;;;;;16.20;94096.00;;;;7396514;19;20604;-76
2023/09/16 01:02:09;;;;;;;17.20;13.95;;;;;16.20;94093.00;;;;7397119;19;20149;-77
2023/09/16 01:04:40;;;;;;;16.05;14.00;;;;;16.20;94090.00;;;;7395302;19;20125;-77
2023/09/16 01:07:15;;;;;;;16.98;12.63;;;;;16.10;94096.00;;;;7396333;19;20690;-76
2023/09/16 01:09:50;;;;;;;16.25;13.18;;;;;16.10;94094.00;;;;7397831;19;20649;-77
2023/09/16 01:12:25;;;;;;;18.23;13.68;;;;;16.10;94094.00;;;;7394594;19;20153;-78
2023/09/16 01:15:00;;;;;;;20.63;13.52;;;;;16.10;94097.00;;;;7395186;19;20124;-75
2023/09/16 01:17:42;;;;;;;16.27;13.50;;;;;16.00;94095.00;;;;7394771;19;20606;-77
2023/09/16 01:20:18;;;;;;;15.93;12.35;;;;;15.90;94089.00;;;;7394921;19;20137;-76
2023/09/16 01:22:48;;;;;;;18.30;13.95;;;;;16.00;94094.00;;;;7396916;19;20638;-77
2023/09/16 01:25:29;;;;;;;16.10;13.50;;;;;16.00;94086.00;;;;7395593;19;20144;-76
2023/09/16 01:28:04;;;;;;;16.95;13.63;;;;;15.90;94088.00;;;;7394554;19;20144;-76
2023/09/16 01:30:43;;;;;;;15.25;12.88;;;;;15.90;94089.00;;;;7390970;19;20169;-76
2023/09/16 01:33:29;;;;;;;15.77;12.98;;;;;15.80;94097.00;;;;7395597;19;20128;-75
2023/09/16 01:36:07;;;;;;;14.52;12.02;;;;;15.70;94095.00;;;;7397274;19;20184;-77
2023/09/16 01:38:48;;;;;;;15.65;13.07;;;;;15.80;94096.00;;;;7393925;19;20153;-77
2023/09/16 01:41:19;;;;;;;15.10;12.63;;;;;15.90;94087.00;;;;7394974;19;20471;-78
2023/09/16 01:43:54;;;;;;;17.33;14.48;;;;;16.00;94106.00;;;;7395218;19;20163;-74
2023/09/16 01:46:29;;;;;;;15.82;13.18;;;;;16.00;94098.00;;;;7391348;19;20869;-76
2023/09/16 01:48:57;;;;;;;15.05;12.77;;;;;16.00;94097.00;;;;7396200;19;20133;-76
2023/09/16 01:51:33;;;;;;;21.42;12.43;;;;;16.20;94095.00;;;;7394135;19;20212;-75
2023/09/16 01:54:01;;;;;;;15.45;12.57;;;;;16.20;94098.00;;;;7395430;19;20139;-77
2023/09/16 01:56:39;;;;;;;15.02;11.90;;;;;16.30;94102.00;;;;7393758;19;20133;-75
2023/09/16 01:59:15;;;;;;;15.90;12.90;;;;;16.20;94110.00;;;;7394565;19;20155;-77
2023/09/16 02:01:58;;;;;;;16.00;12.98;;;;;16.30;94105.00;;;;7395311;19;20628;-78
2023/09/16 02:04:26;;;;;;;15.40;11.45;;;;;16.30;94107.00;;;;7393495;19;20128;-76
2023/09/16 02:07:01;;;;;;;14.60;12.52;;;;;16.40;94097.00;;;;7394167;19;20152;-76
2023/09/16 02:09:37;;;;;;;13.70;12.07;;;;;16.30;94095.00;;;;7394772;19;20148;-72
2023/09/16 02:12:11;;;;;;;13.27;11.15;;;;;16.30;94099.00;;;;7393373;19;20638;-71
2023/09/16 02:14:49;;;;;;;13.27;11.30;;;;;16.20;94100.00;;;;7391333;19;20171;-71
2023/09/16 02:17:25;;;;;;;12.90;10.82;;;;;16.30;94106.00;;;;7395227;19;20163;-72
2023/09/16 02:20:01;;;;;;;14.43;10.88;;;;;16.20;94117.00;;;;7393329;19;20639;-71
2023/09/16 02:22:29;;;;;;;13.77;11.52;;;;;16.20;94114.00;;;;7393052;19;20564;-72
2023/09/16 02:25:04;;;;;;;13.45;11.23;;;;;16.00;94119.00;;;;7393844;19;20156;-71
2023/09/16 02:27:33;;;;;;;10.25;9.15;;;;;16.00;94116.00;;;;7395310;19;20125;-72
2023/09/16 02:30:20;;;;;;;14.23;10.50;;;;;15.90;94114.00;;;;7392095;19;20271;-73
2023/09/16 02:32:54;;;;;;;12.98;10.55;;;;;15.80;94114.00;;;;7391177;19;20170;-70
2023/09/16 02:35:29;;;;;;;10.75;9.05;;;;;15.80;94114.00;;;;7392076;19;20674;-72
2023/09/16 02:38:02;;;;;;;11.32;10.13;;;;;15.60;94125.00;;;;7392733;19;20149;-70
2023/09/16 02:40:42;;;;;;;10.07;9.07;;;;;15.60;94122.00;;;;7392851;19;21076;-73
2023/09/16 02:43:12;;;;;;;13.25;10.52;;;;;15.70;94119.00;;;;7401553;19;20175;-72
2023/09/16 02:45:46;;;;;;;10.93;8.93;;;;;15.50;94110.00;;;;7397145;19;20482;-71
2023/09/16 02:48:18;;;;;;;13.65;10.88;;;;;15.40;94124.00;;;;7400053;19;20220;-72
2023/09/16 02:50:52;;;;;;;16.15;11.95;;;;;15.50;94121.00;;;;7400886;19;20488;-71
2023/09/16 02:53:21;;;;;;;14.30;10.35;;;;;15.50;94116.00;;;;7399324;19;20147;-71
2023/09/16 02:55:56;;;;;;;17.13;13.07;;;;;15.60;94120.00;;;;7399862;19;20173;-71
2023/09/16 02:58:30;;;;;;;12.85;10.77;;;;;15.50;94119.00;;;;7399760;19;20160;-72
2023/09/16 03:01:11;;;;;;;17.00;13.45;;;;;15.80;94117.00;;;;7401279;19;20127;-73
2023/09/16 03:03:45;;;;;;;18.95;12.85;;;;;15.90;94113.00;;;;7399703;19;20137;-71
2023/09/16 03:06:22;;;;;;;16.50;13.05;;;;;16.00;94114.00;;;;7399511;19;20179;-72
2023/09/16 03:08:52;;;;;;;14.45;12.77;;;;;15.90;94115.00;;;;7400362;19;20597;-70
2023/09/16 03:11:26;;;;;;;18.27;13.20;;;;;15.90;94110.00;;;;7398403;19;20609;-71
2023/09/16 03:14:03;;;;;;;14.25;12.25;;;;;15.90;94107.00;;;;7398591;19;20490;-73
2023/09/16 03:16:31;;;;;;;14.55;11.85;;;;;15.90;94101.00;;;;7400676;19;20156;-70
2023/09/16 03:19:08;;;;;;;12.93;10.52;;;;;15.90;94104.00;;;;7399335;19;20125;-74
2023/09/16 03:21:36;;;;;;;14.73;11.65;;;;;15.90;94102.00;;;;7398510;19;20160;-73
2023/09/16 03:24:11;;;;;;;14.50;10.45;;;;;15.80;94100.00;;;;7400456;19;20211;-73
2023/09/16 03:26:39;;;;;;;14.18;11.00;;;;;15.80;94090.00;;;;7397615;19;20144;-74
2023/09/16 03:29:08;;;;;;;11.60;9.15;;;;;15.70;94086.00;;;;7399130;19;20208;-75
2023/09/16 03:31:48;;;;;;;14.60;10.57;;;;;15.60;94091.00;;;;7396590;19;20191;-74
2023/09/16 03:34:16;;;;;;;15.00;9.90;;;;;15.60;94081.00;;;;7398302;19;20136;-74
2023/09/16 03:36:51;;;;;;;16.02;12.85;;;;;15.80;94080.00;;;;7398090;19;20145;-74
2023/09/16 03:39:20;;;;;;;16.33;11.55;;;;;15.80;94077.00;;;;7399376;19;20619;-74
2023/09/16 03:41:55;;;;;;;14.60;11.88;;;;;15.80;94082.00;;;;7399774;19;20121;-74
2023/09/16 03:44:23;;;;;;;15.25;11.95;;;;;15.90;94080.00;;;;7397867;19;20148;-73
2023/09/16 03:46:51;;;;;;;13.45;10.10;;;;;15.70;94069.00;;;;7394775;19;20204;-75
2023/09/16 03:49:36;;;;;;;10.50;8.60;;;;;15.60;94066.00;;;;7397791;19;20140;-74
2023/09/16 03:52:12;;;;;;;9.35;8.38;;;;;15.50;94074.00;;;;7397395;19;20462;-74
2023/09/16 03:54:46;;;;;;;9.98;8.13;;;;;15.40;94074.00;;;;7396461;19;20599;-74
2023/09/16 03:57:21;;;;;;;12.45;9.00;;;;;15.40;94077.00;;;;7399739;19;20132;-73
2023/09/16 03:59:49;;;;;;;10.40;8.10;;;;;15.30;94070.00;;;;7397606;19;20129;-73
2023/09/16 04:02:24;;;;;;;11.05;9.25;;;;;15.30;94068.00;;;;7397262;19;20140;-75
2023/09/16 04:04:53;;;;;;;11.15;8.68;;;;;15.40;94070.00;;;;7397785;19;20141;-73
2023/09/16 04:07:21;;;;;;;11.02;9.18;;;;;15.40;94066.00;;;;7395864;19;20638;-74
2023/09/16 04:09:56;;;;;;;10.60;8.70;;;;;15.40;94060.00;;;;7398873;19;20149;-75
2023/09/16 04:12:27;;;;;;;9.95;8.95;;;;;15.30;94064.00;;;;7398447;19;20136;-74
2023/09/16 04:15:12;;;;;;;10.23;8.55;;;;;15.30;94063.00;;;;7397335;19;20664;-74
2023/09/16 04:17:40;;;;;;;8.90;7.85;;;;;15.30;94057.00;;;;7398083;19;20137;-73
2023/09/16 04:20:15;;;;;;;11.35;9.40;;;;;15.30;94052.00;;;;7398341;19;20120;-74
2023/09/16 04:22:43;;;;;;;12.52;8.85;;;;;15.30;94051.00;;;;7396764;19;20152;-75
2023/09/16 04:25:17;;;;;;;9.20;8.05;;;;;15.30;94047.00;;;;7397276;19;20720;-74
2023/09/16 04:27:45;;;;;;;9.18;7.35;;;;;15.20;94040.00;;;;7398055;19;20141;-74
2023/09/16 04:30:13;;;;;;;9.00;7.22;;;;;15.20;94036.00;;;;7397684;19;20190;-75
2023/09/16 04:32:54;;;;;;;7.60;6.80;;;;;15.30;94044.00;;;;7397492;19;20176;-74
2023/09/16 04:35:29;;;;;;;8.05;7.25;;;;;15.20;94048.00;;;;7396553;19;20129;-75
2023/09/16 04:38:05;;;;;;;8.00;7.20;;;;;15.20;94046.00;;;;7394579;19;20141;-74
2023/09/16 04:40:44;;;;;;;9.25;7.03;;;;;15.20;94048.00;;;;7396077;19;20604;-77
2023/09/16 04:43:13;;;;;;;8.52;7.28;;;;;15.20;94050.00;;;;7395620;19;20137;-75
2023/09/16 04:45:48;;;;;;;8.98;7.55;;;;;15.60;94044.00;;;;7393011;19;20215;-76
2023/09/16 04:48:22;;;;;;;10.93;6.30;;;;;15.70;94034.00;;;;7397266;19;20125;-75
2023/09/16 04:50:56;;;;;;;8.10;6.60;;;;;15.60;94036.00;;;;7392980;19;20125;-74
2023/09/16 04:53:26;;;;;;;8.40;6.55;;;;;15.60;94040.00;;;;7396529;19;20966;-74
2023/09/16 04:56:05;;;;;;;7.07;6.38;;;;;15.50;94037.00;;;;7394922;19;20152;-75
2023/09/16 04:58:34;;;;;;;7.00;6.25;;;;;15.50;94031.00;;;;7396651;19;20832;-75
2023/09/16 05:01:09;;;;;;;6.90;6.03;;;;;15.40;94029.00;;;;7393853;19;20187;-75
2023/09/16 05:03:37;;;;;;;7.28;6.50;;;;;15.60;94036.00;;;;7395500;19;20169;-75
2023/09/16 05:06:12;;;;;;;9.07;5.95;;;;;15.60;94031.00;;;;7390104;19;20583;-73
2023/09/16 05:08:49;;;;;;;8.43;6.03;;;;;15.70;94038.00;;;;7394991;19;20493;-74
2023/09/16 05:11:24;;;;;;;7.18;6.38;;;;;15.80;94031.00;;;;7396043;19;20940;-75
2023/09/16 05:13:52;;;;;;;6.45;5.70;;;;;15.80;94037.00;;;;7392592;19;20155;-77
2023/09/16 05:16:27;;;;;;;6.18;5.57;;;;;15.70;94032.00;;;;7395043;19;20148;-74
2023/09/16 05:18:57;;;;;;;7.03;6.32;;;;;15.70;94031.00;;;;7395302;19;20528;-74
2023/09/16 05:21:32;;;;;;;6.20;5.22;;;;;15.60;94029.00;;;;7393834;19;20133;-76
2023/09/16 05:24:00;;;;;;;8.45;6.95;;;;;15.70;94033.00;;;;7396167;19;20620;-75
2023/09/16 05:26:37;;;;;;;9.70;7.57;;;;;16.00;94028.00;;;;7394713;19;20144;-75
2023/09/16 05:29:05;;;;;;;7.53;6.13;;;;;16.20;94023.00;;;;7397170;19;20144;-75
2023/09/16 05:31:46;;;;;;;6.82;6.00;;;;;16.30;94026.00;;;;7394012;19;20161;-76
2023/09/16 05:34:14;;;;;;;6.18;5.57;;;;;16.50;94037.00;;;;7393363;19;20187;-74
2023/09/16 05:36:48;;;;;;;6.75;5.97;;;;;16.50;94032.00;;;;7391055;19;20640;-75
2023/09/16 05:39:16;;;;;;;6.35;5.70;;;;;16.70;94030.00;;;;7396404;19;20162;-74
2023/09/16 05:41:50;;;;;;;7.60;6.78;;;;;16.80;94022.00;;;;7392605;19;20152;-75
2023/09/16 05:44:21;;;;;;;9.32;6.32;;;;;16.90;94027.00;;;;7387656;19;20148;-73
2023/09/16 05:46:56;;;;;;;8.70;6.65;;;;;17.10;94017.00;;;;7368904;19;20616;-75
2023/09/16 05:49:28;;;;;;;6.47;5.78;;;;;17.10;94018.00;;;;7372033;19;20177;-76
2023/09/16 05:52:03;;;;;;;9.30;6.32;;;;;17.30;94025.00;;;;7380387;19;20172;-74
2023/09/16 05:54:38;;;;;;;6.65;5.85;;;;;17.30;94029.00;;;;7379146;19;20160;-74
2023/09/16 05:57:13;;;;;;;7.68;6.85;;;;;17.50;94023.00;;;;7379173;19;20136;-76
2023/09/16 05:59:48;;;;;;;8.00;7.18;;;;;17.60;94027.00;;;;7376779;19;20212;-75
2023/09/16 06:02:22;;;;;;;9.07;7.35;;;;;17.70;94029.00;;;;7379127;19;20188;-75
2023/09/16 06:04:57;;;;;;;7.97;7.18;;;;;17.80;94030.00;;;;7376718;19;20163;-75
2023/09/16 06:07:25;;;;;;;8.13;7.25;;;;;18.00;94031.00;;;;7378846;19;20148;-75
2023/09/16 06:10:00;;;;;;;8.32;7.45;;;;;18.20;94032.00;;;;7380451;19;20139;-73
2023/09/16 06:12:29;;;;;;;7.22;6.53;;;;;18.20;94034.00;;;;7382307;19;20139;-76
2023/09/16 06:15:04;;;;;;;7.47;6.75;;;;;18.30;94027.00;;;;7378655;19;20148;-73
2023/09/16 06:17:38;;;;;;;7.47;6.78;;;;;18.50;94032.00;;;;7382138;19;20151;-75
2023/09/16 06:20:12;;;;;;;6.75;6.05;;;;;18.70;94035.00;;;;7385020;19;20212;-75
2023/09/16 06:22:46;;;;;;;6.68;5.90;;;;;18.80;94031.00;;;;7386293;19;20585;-75
2023/09/16 06:25:15;;;;;;;6.55;5.63;;;;;18.90;94027.00;;;;7384665;19;20156;-75
2023/09/16 06:27:49;;;;;;;6.65;5.57;;;;;19.00;94033.00;;;;7383877;19;20136;-73
2023/09/16 06:30:23;;;;;;;5.57;5.00;;;;;19.20;94035.00;;;;7385774;19;20168;-76
2023/09/16 06:33:07;;;;;;;6.72;5.38;;;;;19.30;94033.00;;;;7385391;19;20144;-76
2023/09/16 06:35:35;;;;;;;5.53;4.75;;;;;19.50;94036.00;;;;7380409;19;20607;-76
2023/09/16 06:38:09;;;;;;;5.63;5.00;;;;;19.60;94035.00;;;;7384204;19;20129;-74
2023/09/16 06:40:38;;;;;;;5.85;5.10;;;;;19.70;94028.00;;;;7383266;19;20188;-74
2023/09/16 06:43:12;;;;;;;5.75;5.00;;;;;19.70;94033.00;;;;7383887;19;20138;-75
2023/09/16 06:45:40;;;;;;;6.85;4.65;;;;;19.80;94038.00;;;;7384381;19;20129;-77
2023/09/16 06:48:15;;;;;;;5.25;4.75;;;;;19.90;94046.00;;;;7389139;19;20132;-76
2023/09/16 06:50:44;;;;;;;4.47;4.07;;;;;20.00;94042.00;;;;7386684;19;20213;-74
2023/09/16 06:53:18;;;;;;;5.20;4.70;;;;;20.10;94036.00;;;;7382537;19;20520;-75
2023/09/16 06:55:52;;;;;;;4.28;3.88;;;;;20.30;94033.00;;;;7385193;19;20183;-74
2023/09/16 06:58:21;;;;;;;4.32;3.92;;;;;20.40;94030.00;;;;7383981;19;20146;-75
2023/09/16 07:00:55;;;;;;;5.38;4.22;;;;;20.50;94028.00;;;;7386006;19;20168;-75
2023/09/16 07:03:30;;;;;;;4.15;3.85;;;;;20.50;94023.00;;;;7389182;19;20200;-75
2023/09/16 07:06:05;;;;;;;4.55;4.05;;;;;20.50;94031.00;;;;7386560;19;20148;-74
2023/09/16 07:08:39;;;;;;;3.70;3.40;;;;;20.70;94027.00;;;;7383641;19;20128;-75
2023/09/16 07:11:07;;;;;;;3.47;3.17;;;;;20.90;94024.00;;;;7385047;19;20200;-75
2023/09/16 07:13:53;;;;;;;3.50;3.20;;;;;21.20;94029.00;;;;7387443;19;20654;-75
2023/09/16 07:16:21;;;;;;;3.05;2.70;;;;;21.30;94024.00;;;;7387396;19;20149;-76
2023/09/16 07:18:56;;;;;;;3.30;3.00;;;;;21.00;94026.00;;;;7386459;19;20148;-75
2023/09/16 07:21:24;;;;;;;3.20;2.95;;;;;20.80;94031.00;;;;7387247;19;20128;-74
2023/09/16 07:24:01;;;;;;;6.13;3.38;;;;;20.50;94022.00;;;;7387363;19;20145;-74
2023/09/16 07:26:29;;;;;;;3.53;3.22;;;;;20.70;94033.00;;;;7385342;19;20149;-73
2023/09/16 07:29:05;;;;;;;5.63;3.33;;;;;21.10;94032.00;;;;7384074;19;20665;-75
2023/09/16 07:31:38;;;;;;;5.30;3.53;;;;;21.40;94026.00;;;;7384601;19;20168;-74
2023/09/16 07:34:15;;;;;;;4.18;3.63;;;;;21.80;94032.00;;;;7385646;19;20488;-74
2023/09/16 07:36:43;;;;;;;6.43;3.80;;;;;22.10;94027.00;;;;7385897;19;20587;-75
2023/09/16 07:39:17;;;;;;;4.53;3.90;;;;;22.20;94041.00;;;;7391066;19;20134;-74
2023/09/16 07:41:45;;;;;;;4.00;3.70;;;;;22.20;94043.00;;;;7389718;19;20146;-75
2023/09/16 07:44:19;;;;;;;5.57;4.30;;;;;22.40;94040.00;;;;7382230;19;20132;-75
2023/09/16 07:46:48;;;;;;;5.45;3.80;;;;;22.50;94043.00;;;;7387288;19;20129;-75
2023/09/16 07:49:22;;;;;;;4.85;3.53;;;;;22.70;94053.00;;;;7386851;19;20607;-73
2023/09/16 07:51:50;;;;;;;3.63;3.33;;;;;22.80;94052.00;;;;7386571;19;20488;-75
2023/09/16 07:54:24;;;;;;;4.25;3.95;;;;;23.10;94052.00;;;;7386350;19;20148;-75
2023/09/16 07:56:58;;;;;;;3.30;3.00;;;;;23.20;94044.00;;;;7385508;19;20249;-75
2023/09/16 07:59:29;;;;;;;4.13;3.72;;;;;23.40;94051.00;;;;7387617;19;20121;-73
2023/09/16 08:02:05;;;;;;;4.32;3.90;;;;;23.50;94054.00;;;;7387200;19;20156;-74
2023/09/16 08:04:39;;;;;;;4.00;3.60;;;;;23.70;94056.00;;;;7385796;19;20148;-74
2023/09/16 08:07:07;;;;;;;4.10;3.80;;;;;23.70;94053.00;;;;7385613;19;20136;-75
2023/09/16 08:09:41;;;;;;;3.70;3.40;;;;;23.90;94050.00;;;;7386283;19;20493;-76
2023/09/16 08:12:19;;;;;;;4.15;3.80;;;;;23.90;94059.00;;;;7385448;19;20634;-77
2023/09/16 08:14:54;;;;;;;4.28;3.88;;;;;24.10;94067.00;;;;7385518;19;20167;-75
2023/09/16 08:17:30;;;;;;;4.03;3.63;;;;;24.30;94066.00;;;;7385354;19;20135;-78
2023/09/16 08:20:06;;;;;;;4.38;3.85;;;;;24.60;94065.00;;;;7384399;19;20484;-75
2023/09/16 08:22:40;;;;;;;4.00;3.60;;;;;24.70;94060.00;;;;7385146;19;20171;-76
2023/09/16 08:25:15;;;;;;;3.83;3.53;;;;;24.70;94063.00;;;;7383563;19;20160;-77
2023/09/16 08:27:49;;;;;;;3.50;3.20;;;;;24.40;94066.00;;;;7382170;19;20199;-77
2023/09/16 08:30:25;;;;;;;3.70;3.40;;;;;24.00;94067.00;;;;7384764;19;20152;-77
2023/09/16 08:33:05;;;;;;;3.88;3.58;;;;;24.20;94069.00;;;;7384525;19;20152;-76
2023/09/16 08:35:33;;;;;;;3.65;3.35;;;;;24.50;94066.00;;;;7385803;19;20132;-75
2023/09/16 08:38:08;;;;;;;3.50;3.20;;;;;24.70;94070.00;;;;7383878;19;20454;-76
2023/09/16 08:40:42;;;;;;;4.15;3.40;;;;;24.80;94071.00;;;;7383652;19;20200;-77
2023/09/16 08:43:28;;;;;;;4.15;3.33;;;;;24.80;94066.00;;;;7384804;19;20540;-77
2023/09/16 08:46:10;;;;;;;9.98;4.03;;;;;24.80;94067.00;;;;7378950;19;20240;-77
2023/09/16 08:48:44;;;;;;;5.20;4.07;;;;;24.90;94071.00;;;;7382775;19;20148;-76
2023/09/16 08:51:21;;;;;;;4.68;4.28;;;;;25.10;94077.00;;;;7385118;19;20137;-77
2023/09/16 08:53:52;;;;;;;4.35;3.95;;;;;25.10;94082.00;;;;7382158;19;20152;-76
2023/09/16 08:56:27;;;;;;;6.20;4.60;;;;;25.10;94083.00;;;;7382613;19;20152;-77
2023/09/16 08:58:57;;;;;;;4.35;3.95;;;;;25.30;94078.00;;;;7383247;19;20175;-77
2023/09/16 09:01:33;;;;;;;4.18;3.78;;;;;25.30;94084.00;;;;7383611;19;20195;-77
2023/09/16 09:04:04;;;;;;;3.90;3.50;;;;;25.40;94086.00;;;;7384213;19;20188;-76
2023/09/16 09:06:39;;;;;;;3.00;2.80;;;;;25.40;94084.00;;;;7383158;19;20144;-78
2023/09/16 09:09:08;;;;;;;3.45;3.15;;;;;25.40;94083.00;;;;7383943;19;20125;-76
2023/09/16 09:11:43;;;;;;;2.55;2.35;;;;;25.60;94082.00;;;;7382675;19;20144;-74
2023/09/16 09:14:20;;;;;;;3.75;2.55;;;;;25.70;94075.00;;;;7383704;19;20140;-79
2023/09/16 09:16:57;;;;;;;3.15;2.85;;;;;25.70;94078.00;;;;7383271;19;20148;-75
2023/09/16 09:19:26;;;;;;;3.00;2.80;;;;;25.70;94078.00;;;;7384820;19;20588;-76
2023/09/16 09:22:07;;;;;;;3.42;3.13;;;;;25.70;94078.00;;;;7382764;19;20216;-73
2023/09/16 09:24:35;;;;;;;3.42;3.13;;;;;25.70;94085.00;;;;7382409;19;20154;-75
2023/09/16 09:27:10;;;;;;;3.85;3.47;;;;;25.90;94090.00;;;;7383672;19;20675;-75
2023/09/16 09:29:44;;;;;;;4.68;3.03;;;;;26.10;94086.00;;;;7382126;19;20148;-75
2023/09/16 09:32:21;;;;;;;3.42;3.13;;;;;25.90;94092.00;;;;7381049;19;20519;-75
2023/09/16 09:34:56;;;;;;;4.65;3.22;;;;;26.00;94095.00;;;;7382788;19;20133;-74
2023/09/16 09:37:30;;;;;;;3.08;2.78;;;;;26.20;94086.00;;;;7382620;19;20168;-74
2023/09/16 09:40:12;;;;;;;3.90;3.60;;;;;26.40;94093.00;;;;7382197;19;20484;-75
2023/09/16 09:42:49;;;;;;;3.90;3.13;;;;;26.40;94098.00;;;;7382950;19;20170;-75
2023/09/16 09:45:23;;;;;;;2.63;2.38;;;;;26.40;94098.00;;;;7379383;19;20176;-76
2023/09/16 09:47:57;;;;;;;3.15;2.33;;;;;26.40;94080.00;;;;7383969;19;20133;-74
2023/09/16 09:50:29;;;;;;;5.35;2.58;;;;;26.80;94089.00;;;;7378780;19;20213;-75
2023/09/16 09:53:04;;;;;;;3.47;3.17;;;;;26.50;94093.00;;;;7379858;19;20128;-74
2023/09/16 09:55:40;;;;;;;3.20;2.60;;;;;26.40;94090.00;;;;7381396;19;20188;-72
2023/09/16 09:58:09;;;;;;;2.13;2.00;;;;;26.60;94096.00;;;;7381315;19;20140;-75
2023/09/16 10:00:49;;;;;;;2.70;2.50;;;;;26.90;94083.00;;;;7382341;19;20262;-75
2023/09/16 10:03:21;;;;;;;2.50;2.30;;;;;27.40;94076.00;;;;7380619;19;20148;-75
2023/09/16 10:05:59;;;;;;;2.42;2.22;;;;;27.40;94082.00;;;;7381853;19;20497;-75
2023/09/16 10:08:31;;;;;;;2.58;2.38;;;;;28.00;94074.00;;;;7380800;19;20604;-75
2023/09/16 10:11:05;;;;;;;2.70;2.47;;;;;28.20;94068.00;;;;7382866;19;20850;-74
2023/09/16 10:13:34;;;;;;;2.38;2.17;;;;;28.00;94072.00;;;;7380549;19;20148;-75
2023/09/16 10:16:09;;;;;;;2.40;1.75;;;;;28.10;94069.00;;;;7382312;19;20144;-75
2023/09/16 10:18:44;;;;;;;2.13;1.92;;;;;27.90;94070.00;;;;7379209;19;20140;-76
2023/09/16 10:21:19;;;;;;;2.45;1.58;;;;;27.90;94078.00;;;;7380406;19;20936;-74
2023/09/16 10:23:47;;;;;;;2.53;2.30;;;;;27.80;94090.00;;;;7381090;19;20615;-75
2023/09/16 10:26:21;;;;;;;2.08;1.98;;;;;27.70;94090.00;;;;7383123;19;20129;-75
2023/09/16 10:28:52;;;;;;;2.38;2.17;;;;;27.70;94087.00;;;;7380388;19;20133;-74
2023/09/16 10:31:21;;;;;;;6.28;2.40;;;;;27.90;94099.00;;;;7380017;19;20528;-76
2023/09/16 10:34:03;;;;;;;1.55;1.45;;;;;27.40;94090.00;;;;7379588;19;20161;-75
2023/09/16 10:36:33;;;;;;;2.95;1.75;;;;;27.20;94090.00;;;;7378644;19;20638;-75
2023/09/16 10:39:11;;;;;;;1.42;1.33;;;;;26.90;94090.00;;;;7378016;19;20603;-76
2023/09/16 10:41:39;;;;;;;2.10;1.90;;;;;27.50;94103.00;;;;7380435;19;20238;-76
2023/09/16 10:44:16;;;;;;;6.85;1.80;;;;;27.60;94098.00;;;;7377432;19;20136;-76
2023/09/16 10:46:51;;;;;;;1.80;1.70;;;;;27.40;94097.00;;;;7378551;19;20714;-75
2023/09/16 10:49:26;;;;;;;2.42;2.03;;;;;27.60;94078.00;;;;7375334;19;20644;-77
2023/09/16 10:51:59;;;;;;;2.35;2.15;;;;;28.10;94080.00;;;;7375892;19;20169;-75
2023/09/16 10:54:41;;;;;;;2.10;1.90;;;;;28.20;94085.00;;;;7380384;19;20125;-75
2023/09/16 10:57:20;;;;;;;2.03;1.92;;;;;27.70;94085.00;;;;7378002;19;20145;-75
2023/09/16 10:59:52;;;;;;;3.78;2.58;;;;;27.00;94100.00;;;;7380700;19;20144;-75
2023/09/16 11:02:51;;;;;;;2.67;2.25;;;;;26.80;94095.00;;;;7382574;19;20152;-75
2023/09/16 11:05:20;;;;;;;2.60;2.40;;;;;26.90;94097.00;;;;7386861;19;20129;-75
2023/09/16 11:07:55;;;;;;;3.00;2.70;;;;;27.00;94097.00;;;;7387914;19;20197;-75
2023/09/16 11:10:23;;;;;;;4.22;2.50;;;;;26.80;94098.00;;;;7387368;19;20579;-74
2023/09/16 11:13:04;;;;;;;3.50;2.40;;;;;27.30;94088.00;;;;7386797;19;20215;-75
2023/09/16 11:15:34;;;;;;;3.00;2.10;;;;;27.30;94078.00;;;;7387286;19;20124;-75
2023/09/16 11:18:10;;;;;;;3.60;2.10;;;;;28.00;94073.00;;;;7383649;19;20778;-76
2023/09/16 11:20:38;;;;;;;5.32;3.05;;;;;28.50;94075.00;;;;7388083;19;20612;-75
2023/09/16 11:23:07;;;;;;;4.13;3.17;;;;;28.80;94084.00;;;;7385242;19;20141;-75
2023/09/16 11:25:42;;;;;;;3.45;3.15;;;;;28.70;94077.00;;;;7384544;19;20161;-75
2023/09/16 11:28:13;;;;;;;3.45;3.10;;;;;28.70;94080.00;;;;7384348;19;20138;-76
2023/09/16 11:31:07;;;;;;;3.15;2.92;;;;;29.00;94079.00;;;;7385660;19;20650;-74
2023/09/16 11:33:42;;;;;;;4.13;3.10;;;;;29.10;94077.00;;;;7386727;19;20702;-75
2023/09/16 11:36:18;;;;;;;3.30;3.10;;;;;29.20;94075.00;;;;7383564;19;20235;-75
2023/09/16 11:38:55;;;;;;;4.28;3.10;;;;;29.20;94058.00;;;;7385757;19;20136;-77
2023/09/16 11:41:22;;;;;;;3.10;2.80;;;;;29.60;94071.00;;;;7385814;19;20145;-76
2023/09/16 11:43:58;;;;;;;3.35;2.80;;;;;29.40;94062.00;;;;7385851;19;20607;-75
2023/09/16 11:46:34;;;;;;;3.10;2.53;;;;;29.30;94062.00;;;;7385239;19;20131;-77
2023/09/16 11:49:05;;;;;;;2.75;2.55;;;;;29.20;94063.00;;;;7382029;19;20579;-77
2023/09/16 11:51:39;;;;;;;2.90;2.45;;;;;29.70;94053.00;;;;7386370;19;20132;-77
2023/09/16 11:54:07;;;;;;;2.90;2.50;;;;;29.90;94054.00;;;;7383024;19;20137;-76
2023/09/16 11:56:41;;;;;;;8.27;2.58;;;;;29.70;94053.00;;;;7382801;19;20127;-76
2023/09/16 11:59:15;;;;;;;2.95;2.75;;;;;29.50;94053.00;;;;7383586;19;20124;-76
2023/09/16 12:01:44;;;;;;;2.60;2.40;;;;;29.20;94055.00;;;;7383400;19;20175;-77
2023/09/16 12:04:15;;;;;;;2.53;2.33;;;;;29.70;94045.00;;;;7382537;19;20144;-75
2023/09/16 12:06:51;;;;;;;2.30;2.15;;;;;29.80;94041.00;;;;7384124;19;20503;-78
2023/09/16 12:09:27;;;;;;;2.42;2.22;;;;;30.20;94032.00;;;;7384033;19;20478;-78
2023/09/16 12:12:05;;;;;;;2.38;2.20;;;;;30.70;94040.00;;;;7383302;19;20610;-77
2023/09/16 12:14:33;;;;;;;3.03;2.05;;;;;30.20;94037.00;;;;7380557;19;20145;-76
2023/09/16 12:17:09;;;;;;;2.05;1.95;;;;;29.90;94042.00;;;;7383346;19;20135;-76
2023/09/16 12:19:47;;;;;;;2.42;2.22;;;;;29.50;94049.00;;;;7383234;19;20628;-77
2023/09/16 12:22:22;;;;;;;2.33;1.95;;;;;29.50;94038.00;;;;7382537;19;20189;-77
2023/09/16 12:24:54;;;;;;;2.13;2.00;;;;;29.60;94033.00;;;;7383058;19;21254;-77
2023/09/16 12:27:28;;;;;;;5.50;2.40;;;;;30.20;94035.00;;;;7385081;19;20140;-77
2023/09/16 12:30:03;;;;;;;2.38;2.28;;;;;30.40;94039.00;;;;7383459;19;20147;-76
2023/09/16 12:32:57;;;;;;;2.30;1.88;;;;;31.00;94044.00;;;;7382712;19;20196;-76
2023/09/16 12:35:36;;;;;;;2.65;2.45;;;;;30.70;94032.00;;;;7385278;19;20842;-77
2023/09/16 12:38:10;;;;;;;2.50;2.30;;;;;30.00;94052.00;;;;7385084;19;20138;-77
2023/09/16 12:40:45;;;;;;;2.80;2.22;;;;;29.20;94053.00;;;;7385692;19;21605;-75
2023/09/16 12:43:19;;;;;;;2.42;2.22;;;;;28.40;94049.00;;;;7384394;19;20132;-77